Data for 07/24/2005

Time Sea-Level Adjusted Pressure Absolute Pressure Temperature Relative Humidity Dew Point   
(mb) (inHg) (mb) (inHg) (C) (F) (%) (C) (F)
00:05 1022 30.18 851 25.13 17.5 63.6 49 6.9 44.4
00:10 1022 30.18 851 25.13 17.4 63.3 45 5.6 42
00:15 1022 30.18 851 25.13 17.3 63.1 46 5.6 42.1
00:20 1022 30.18 851 25.13 17 62.6 48 6 42.8
00:25 1022 30.18 851 25.13 16.8 62.3 47 5.7 42.2
00:30 1022 30.18 851 25.13 16.6 61.8 48 5.7 42.3
00:35 1022 30.18 851 25.13 16.6 61.8 48 5.6 42.1
00:40 1022 30.18 851 25.13 16.6 61.8 48 5.7 42.2
00:45 1022 30.18 851 25.13 16.4 61.5 48 5.6 42
00:50 1022 30.18 851 25.13 16.4 61.5 48 5.5 41.9
00:55 1022 30.18 851 25.13 16.2 61.2 49 5.6 42
01:00 1022 30.18 851 25.13 16.2 61.1 49 5.4 41.8
01:05 1022 30.18 851 25.13 16 60.9 51 6.1 43
01:10 1022 30.18 851 25.13 16 60.7 49 5.3 41.5
01:15 1022 30.18 851 25.13 16.1 61 47 4.8 40.7
01:20 1022 30.18 851 25.13 16.1 61 47 4.8 40.6
01:25 1022 30.18 851 25.13 16.1 61 47 5 41
01:30 1022 30.18 851 25.13 15.9 60.7 51 5.8 42.5
01:35 1022 30.18 851 25.13 16.2 61.1 47 4.9 40.8
01:40 1022 30.18 851 25.13 16.4 61.4 46 4.9 40.8
01:45 1022 30.18 851 25.13 16.4 61.4 47 5.2 41.4
01:50 1022 30.18 851 25.13 16.2 61.1 47 5 41
01:55 1022 30.18 851 25.13 16.2 61.2 48 5.3 41.6
02:00 1022 30.18 851 25.13 15.9 60.7 49 5.4 41.7
02:05 1022 30.18 851 25.13 15.6 60.1 49 4.9 40.8
02:10 1022 30.18 851 25.13 15.5 59.9 49 5 41
02:15 1022 30.18 851 25.13 15.5 59.8 51 5.4 41.7
02:20 1022 30.18 851 25.13 15.1 59.1 52 5.4 41.8
02:25 1022 30.18 851 25.13 14.8 58.6 52 5.2 41.3
02:30 1022 30.18 851 25.13 14.9 58.8 50 4.7 40.5
02:35 1022 30.18 851 25.13 15.1 59.2 50 4.7 40.5
02:40 1022 30.18 851 25.13 15.1 59.3 48 4.3 39.8
02:45 1022 30.18 851 25.13 15.4 59.7 51 5.4 41.7
02:50 1022 30.18 851 25.13 15.5 60 47 4.3 39.7
02:55 1022 30.18 851 25.13 15.6 60.1 45 3.8 38.9
03:00 1022 30.18 851 25.13 15.8 60.4 45 4.1 39.4
03:05 1022 30.18 851 25.13 15.5 59.9 45 3.8 38.9
03:10 1022 30.18 851 25.13 15.8 60.5 43 3.3 37.9
03:15 1022 30.18 851 25.13 16.2 61.1 43 3.7 38.6
03:20 1022 30.18 851 25.13 16 60.8 43 3.6 38.5
03:25 1022 30.18 851 25.13 15.8 60.5 43 3.4 38
03:30 1022 30.18 851 25.13 15.8 60.5 43 3.3 38
03:35 1022 30.18 851 25.13 15.7 60.2 45 3.9 39.1
03:40 1022 30.18 851 25.13 15.5 59.8 45 3.6 38.5
03:45 1022 30.18 851 25.13 15.7 60.2 44 3.6 38.5
03:50 1022 30.18 851 25.13 15.4 59.7 47 4.1 39.4
03:55 1022 30.18 851 25.13 15.1 59.2 47 3.8 38.9
04:00 1022 30.18 851 25.13 15.2 59.3 46 3.6 38.5
04:05 1022 30.18 851 25.13 15.2 59.4 47 4 39.2
04:10 1022 30.18 851 25.13 15 59 47 3.8 38.8
04:15 1022 30.18 851 25.13 15.1 59.2 45 3.3 37.9
04:20 1022 30.18 851 25.13 15.3 59.6 44 3.2 37.7
04:25 1022 30.18 851 25.13 15.3 59.5 47 4.1 39.4
04:30 1022 30.18 851 25.13 14.6 58.2 49 4.1 39.4
04:35 1022 30.18 851 25.13 15 58.9 45 3.3 37.9
04:40 1022 30.18 851 25.13 14.9 58.8 49 4.2 39.6
04:45 1022 30.18 851 25.13 14.3 57.7 49 3.9 38.9
04:50 1022 30.18 851 25.13 14.5 58.1 48 3.8 38.8
04:55 1022 30.18 851 25.13 14.2 57.6 50 4.1 39.3
05:00 1022 30.18 851 25.13 14 57.2 50 3.7 38.7
05:05 1022 30.18 851 25.13 14.1 57.5 49 3.7 38.7
05:10 1022 30.18 851 25.13 14.2 57.5 49 3.7 38.6
05:15 1022 30.18 851 25.13 13.9 57 51 4 39.2
05:20 1022 30.18 851 25.13 13.7 56.7 51 3.7 38.7
05:25 1022 30.18 851 25.13 13.8 56.8 51 3.8 38.8
05:30 1022 30.18 851 25.13 14 57.3 51 4.2 39.6
05:35 1022 30.18 851 25.13 13.8 56.8 50 3.5 38.3
05:40 1022 30.18 851 25.13 14 57.2 50 3.9 38.9
05:45 1022 30.18 851 25.13 13.9 56.9 49 3.5 38.2
05:50 1022 30.18 851 25.13 13.8 56.9 50 3.6 38.5
05:55 1022 30.18 851 25.13 14 57.2 50 3.7 38.7
06:00 1022 30.18 851 25.13 14 57.2 49 3.6 38.4
06:05 1022 30.18 851 25.13 13.9 57 50 3.6 38.6
06:10 1022 30.18 851 25.13 14.3 57.7 46 2.9 37.2
06:15 1022 30.18 851 25.13 14.7 58.4 45 3 37.4
06:20 1022 30.18 851 25.13 14.5 58.2 46 3.2 37.7
06:25 1022 30.18 851 25.13 14.5 58.1 46 3.2 37.8
06:30 1022 30.18 851 25.13 14.4 57.9 46 2.8 37.1
06:35 1022 30.18 851 25.13 14.6 58.2 45 2.9 37.2
06:40 1022 30.18 851 25.13 14.5 58.2 47 3.4 38.2
06:45 1022 30.18 851 25.13 14.4 58 47 3.4 38.1
06:50 1022 30.18 851 25.13 14.1 57.4 51 4.3 39.7
06:55 1022 30.18 851 25.13 14.1 57.3 48 3.4 38.1
07:00 1022 30.18 851 25.13 14.2 57.6 49 3.6 38.5
07:05 1022 30.18 851 25.13 14.4 57.9 48 3.5 38.2
07:10 1022 30.18 851 25.13 14.7 58.4 48 3.8 38.8
07:15 1022 30.18 851 25.13 14.9 58.9 46 3.6 38.6
07:20 1022 30.18 851 25.13 15.1 59.2 48 4.3 39.7
07:25 1022 30.18 851 25.13 15.1 59.2 48 4.3 39.8
07:30 1022 30.18 851 25.13 15.1 59.1 50 4.7 40.5
07:35 1022 30.18 851 25.13 15.1 59.1 50 4.8 40.6
07:40 1022 30.18 851 25.13 15.2 59.4 47 4.1 39.5
07:45 1022 30.18 851 25.13 15.4 59.8 52 5.7 42.3
07:50 1022 30.18 851 25.13 15.7 60.3 47 4.7 40.4
07:55 1022 30.18 851 25.13 16 60.8 47 4.8 40.7
08:00 1022 30.18 851 25.13 16.4 61.4 47 5.2 41.3
08:05 1022 30.18 851 25.13 16.9 62.5 46 5.4 41.7
08:10 1022 30.18 851 25.13 17.1 62.7 46 5.4 41.8
08:15 1022 30.18 851 25.13 17.5 63.5 45 5.6 42
08:20 1022 30.18 851 25.13 17.9 64.3 49 7 44.7
08:25 1022 30.18 851 25.13 18 64.5 44 5.7 42.2
08:30 1022 30.18 851 25.13 18.1 64.6 45 6.1 43
08:35 1022 30.18 851 25.13 18.8 65.9 44 6.5 43.8
08:40 1022 30.18 851 25.13 19 66.1 42 5.8 42.5
08:45 1022 30.18 851 25.13 19.3 66.7 42 6.3 43.4
08:50 1022 30.18 851 25.13 19.6 67.3 41 6.1 43
08:55 1022 30.18 851 25.13 20.2 68.3 41 6.6 43.9
09:00 1022 30.18 851 25.13 21.3 70.3 38 6.4 43.6
09:05 1022 30.18 851 25.13 21.9 71.4 35 6.1 42.9
09:10 1022 30.18 851 25.13 22 71.6 31 4.3 39.7
09:15 1022 30.18 851 25.13 22.5 72.5 31 4.8 40.7
09:20 1022 30.18 851 25.13 23 73.3 29 4.4 39.9
09:25 1022 30.18 851 25.13 23.7 74.6 27 4 39.2
09:30 1022 30.18 851 25.13 23.6 74.5 27 3.7 38.6
09:35 1022 30.18 851 25.13 23.5 74.2 27 3.6 38.4
09:40 1021 30.15 851 25.13 23.5 74.4 27 3.9 39
09:45 1021 30.15 851 25.13 23.1 73.7 27 3.5 38.4
09:50 1021 30.15 851 25.13 23.3 74 26 2.8 37
09:55 1021 30.15 850 25.1 23.7 74.7 26 3.5 38.3
10:00 1021 30.15 850 25.1 24 75.1 25 3 37.4
10:05 1021 30.15 850 25.1 24.3 75.7 25 3.3 37.9
10:10 1021 30.15 850 25.1 24.4 75.8 26 3.6 38.5
10:15 1021 30.15 850 25.1 24.6 76.2 25 3.7 38.6
10:20 1021 30.15 850 25.1 25.2 77.3 25 3.7 38.7
10:25 1021 30.15 850 25.1 25.2 77.4 24 3.6 38.5
10:30 1021 30.15 850 25.1 25.5 77.9 23 3.3 37.9
10:35 1021 30.15 850 25.1 25.6 78.1 23 3.2 37.8
10:40 1021 30.15 850 25.1 25.6 78.1 24 3.8 38.9
10:45 1021 30.15 850 25.1 26 78.7 24 3.9 39
10:50 1021 30.15 850 25.1 26.5 79.7 23 3.8 38.8
10:55 1021 30.15 850 25.1 27 80.5 21 3.3 37.9
11:00 1021 30.15 850 25.1 27 80.5 22 3.6 38.5
11:05 1021 30.15 850 25.1 27 80.6 20 2.6 36.6
11:10 1021 30.15 850 25.1 27.6 81.7 19 2.5 36.5
11:15 1020 30.12 850 25.1 27.4 81.4 21 3.2 37.8
11:20 1020 30.12 850 25.1 27.8 82.1 19 2.7 36.8
11:25 1020 30.12 850 25.1 27.9 82.1 19 2.8 37
11:30 1020 30.12 850 25.1 27.8 82.1 20 3.4 38.2
11:35 1020 30.12 850 25.1 28.1 82.6 18 2 35.5
11:40 1020 30.12 849 25.07 27.1 80.8 19 2.1 35.8
11:45 1020 30.12 849 25.07 27.4 81.3 16 -0.5 31
11:50 1020 30.12 849 25.07 27.9 82.3 14 -1.3 29.6
11:55 1020 30.12 849 25.07 28.4 83 14 -1.3 29.7
12:00 1020 30.12 849 25.07 28.3 82.9 14 -1.2 29.8
12:05 1020 30.12 849 25.07 28.2 82.8 15 -0.7 30.8
12:10 1020 30.12 849 25.07 28.8 83.8 15 -0.2 31.7
12:15 1020 30.12 849 25.07 28.8 83.9 14 -0.9 30.4
12:20 1020 30.12 849 25.07 28.9 84 13 -1.9 28.6
12:25 1020 30.12 849 25.07 28.8 83.8 13 -1.8 28.8
12:30 1020 30.12 849 25.07 28.8 83.9 14 -1.4 29.4
12:35 1020 30.12 849 25.07 29.4 84.9 13 -1.5 29.4
12:40 1020 30.12 849 25.07 29.8 85.7 14 -0.7 30.8
12:45 1020 30.12 849 25.07 29.7 85.4 13 -1 30.1
12:50 1020 30.12 849 25.07 29 84.1 14 -1.3 29.7
12:55 1019 30.09 849 25.07 29.1 84.4 14 -1.1 30
13:00 1019 30.09 849 25.07 28.3 82.9 15 -0.9 30.3
13:05 1019 30.09 849 25.07 28.4 83.1 14 -1.6 29.2
13:10 1019 30.09 848 25.04 28.6 83.4 14 -1.5 29.3
13:15 1019 30.09 848 25.04 28.9 83.9 14 -0.8 30.6
13:20 1019 30.09 848 25.04 29.1 84.3 14 -0.8 30.5
13:25 1019 30.09 848 25.04 29.2 84.5 14 -0.8 30.6
13:30 1019 30.09 848 25.04 28.8 83.9 14 -0.8 30.6
13:35 1019 30.09 848 25.04 28.5 83.2 14 -1.3 29.6
13:40 1019 30.09 848 25.04 28.8 83.8 14 -1 30.2
13:45 1019 30.09 848 25.04 28.9 84 13 -1.7 28.9
13:50 1019 30.09 848 25.04 29.8 85.7 13 -1 30.2
13:55 1019 30.09 848 25.04 30.2 86.3 14 -0.4 31.3
14:00 1019 30.09 848 25.04 30.2 86.4 13 -0.4 31.2
14:05 1019 30.09 848 25.04 30.8 87.5 14 0.3 32.6
14:10 1019 30.09 848 25.04 31 87.7 13 -0.7 30.7
14:15 1019 30.09 848 25.04 30.5 86.8 13 -0.8 30.5
14:20 1019 30.09 848 25.04 30.4 86.7 13 -0.6 31
14:25 1019 30.09 848 25.04 30.8 87.5 13 -0.4 31.2
14:30 1019 30.09 848 25.04 31.1 87.9 13 -0 32
14:35 1019 30.09 848 25.04 31 87.7 13 -0.4 31.3
14:40 1018 30.06 848 25.04 30.6 87 13 -0.6 30.9
14:45 1018 30.06 848 25.04 29.5 85.1 14 -0.2 31.7
14:50 1018 30.06 848 25.04 30.1 86.2 14 0.1 32.2
14:55 1018 30.06 848 25.04 30.9 87.6 13 -0.5 31.2
15:00 1018 30.06 847 25.01 30.7 87.3 13 -0.2 31.7
15:05 1018 30.06 847 25.01 29.7 85.4 14 -0.2 31.6
15:10 1018 30.06 847 25.01 29.8 85.7 14 -0.2 31.6
15:15 1018 30.06 847 25.01 30.4 86.7 14 0.1 32.1
15:20 1018 30.06 847 25.01 30 86 14 -0 32
15:25 1018 30.06 847 25.01 30 86 13 -0.6 30.8
15:30 1018 30.06 847 25.01 30 86 13 -0.6 30.8
15:35 1018 30.06 847 25.01 29.8 85.6 13 -0.8 30.5
15:40 1018 30.06 847 25.01 29.9 85.9 13 -1 30.2
15:45 1018 30.06 847 25.01 29.7 85.4 14 -0.7 30.7
15:50 1018 30.06 847 25.01 30.4 86.6 13 -0.4 31.3
15:55 1018 30.06 847 25.01 30.9 87.7 13 -0.5 31.1
16:00 1017 30.03 847 25.01 30.8 87.4 12 -1.3 29.6
16:05 1017 30.03 847 25.01 31.3 88.3 12 -0.8 30.6
16:10 1017 30.03 846 24.98 31.8 89.2 12 -0.2 31.6
16:15 1017 30.03 846 24.98 31.5 88.8 13 0.4 32.7
16:20 1017 30.03 846 24.98 31.1 88.1 13 -0.4 31.3
16:25 1017 30.03 846 24.98 31.5 88.7 12 -0.9 30.4
16:30 1017 30.03 846 24.98 31.5 88.8 12 -0.6 30.9
16:35 1017 30.03 846 24.98 32 89.6 12 -0.4 31.2
16:40 1017 30.03 846 24.98 32.5 90.5 12 -0.2 31.7
16:45 1017 30.03 846 24.98 31.7 89 14 1 33.8
16:50 1017 30.03 846 24.98 31.1 87.9 13 -0 32
16:55 1017 30.03 846 24.98 30.8 87.4 13 -0.6 30.9
17:00 1017 30.03 846 24.98 30.1 86.2 14 -0.2 31.7
17:05 1017 30.03 846 24.98 29.8 85.7 14 -0.6 30.9
17:10 1017 30.03 846 24.98 29.9 85.9 13 -1.2 29.9
17:15 1016 30 846 24.98 29.8 85.6 14 -0.2 31.6
17:20 1016 30 846 24.98 29.1 84.3 15 -0.3 31.5
17:25 1016 30 846 24.98 29.5 85 14 -0.3 31.5
17:30 1016 30 845 24.95 29.6 85.3 13 -1.3 29.7
17:35 1016 30 845 24.95 29 84.2 14 -1.2 29.9
17:40 1016 30 845 24.95 28.9 83.9 14 -1 30.2
17:45 1016 30 845 24.95 29 84.1 14 -0.9 30.4
17:50 1016 30 845 24.95 29.1 84.4 15 -0.2 31.6
17:55 1016 30 845 24.95 28.9 84.1 15 -0.4 31.3
18:00 1016 30 846 24.98 28.7 83.7 15 -0.6 31
18:05 1017 30.03 846 24.98 28.6 83.5 16 0.3 32.6
18:10 1017 30.03 846 24.98 28.4 83.2 18 2 35.6
18:15 1017 30.03 846 24.98 28.3 83 16 0.1 32.1
18:20 1017 30.03 846 24.98 28.2 82.8 19 2.5 36.4
18:25 1017 30.03 846 24.98 26.9 80.5 24 4.7 40.4
18:30 1017 30.03 846 24.98 25.3 77.5 24 3.8 38.9
18:35 1017 30.03 847 25.01 25.1 77.1 25 3.9 39.1
18:40 1018 30.06 847 25.01 25 77.1 24 3.3 37.9
18:45 1018 30.06 847 25.01 25.1 77.3 25 4.2 39.6
18:50 1018 30.06 847 25.01 25.2 77.4 26 4.6 40.2
18:55 1017 30.03 847 25.01 25.5 77.8 24 3.9 39.1
19:00 1017 30.03 847 25.01 25.4 77.8 25 4 39.3
19:05 1017 30.03 847 25.01 25.2 77.3 25 4 39.1
19:10 1017 30.03 846 24.98 24.9 76.9 26 4.2 39.5
19:15 1017 30.03 846 24.98 25 77 25 3.8 38.9
19:20 1017 30.03 846 24.98 25.3 77.5 25 4 39.1
19:25 1017 30.03 846 24.98 25.4 77.6 27 5.3 41.5
19:30 1017 30.03 846 24.98 25.3 77.5 25 4 39.3
19:35 1017 30.03 847 25.01 25.3 77.5 24 3.3 37.9
19:40 1017 30.03 847 25.01 25.2 77.4 26 4.8 40.6
19:45 1017 30.03 847 25.01 25.2 77.3 27 5 41
19:50 1018 30.06 847 25.01 25.1 77.1 27 4.9 40.9
19:55 1018 30.06 847 25.01 25 77 30 6.3 43.4
20:00 1018 30.06 847 25.01 24.7 76.4 36 8.6 47.5
20:05 1018 30.06 847 25.01 24.1 75.4 31 6.3 43.3
20:10 1018 30.06 847 25.01 23.9 75 34 7.2 44.9
20:15 1017 30.03 847 25.01 23.4 74 40 9.1 48.3
20:20 1017 30.03 847 25.01 23.2 73.7 32 5.6 42.1
20:25 1018 30.06 847 25.01 23.2 73.8 34 6.6 43.9
20:30 1018 30.06 847 25.01 22.4 72.4 35 6.4 43.5
20:35 1018 30.06 847 25.01 22.4 72.3 36 6.7 44
20:40 1018 30.06 847 25.01 22.3 72.2 36 6.8 44.2
20:45 1018 30.06 847 25.01 22.4 72.2 34 6 42.9
20:50 1018 30.06 847 25.01 22.6 72.6 34 6 42.8
20:55 1018 30.06 847 25.01 22.8 73.1 36 7.1 44.8
21:00 1018 30.06 847 25.01 22.9 73.1 31 5.2 41.4
21:05 1018 30.06 847 25.01 23.1 73.6 30 4.7 40.4
21:10 1018 30.06 847 25.01 23.5 74.4 29 4.9 40.8
21:15 1018 30.06 847 25.01 23.3 74 31 5.3 41.6
21:20 1018 30.06 847 25.01 22.9 73.3 32 5.6 42.1
21:25 1018 30.06 847 25.01 22.5 72.6 35 6.5 43.8
21:30 1018 30.06 847 25.01 22.6 72.6 34 6.1 42.9
21:35 1018 30.06 847 25.01 22.3 72.1 36 6.8 44.2
21:40 1018 30.06 847 25.01 22.2 72 34 6 42.7
21:45 1018 30.06 847 25.01 22.3 72.1 33 5.5 42
21:50 1018 30.06 847 25.01 22.4 72.3 31 4.7 40.5
21:55 1018 30.06 847 25.01 22.7 72.8 30 4.6 40.3
22:00 1018 30.06 847 25.01 22.6 72.6 32 5.4 41.7
22:05 1018 30.06 847 25.01 22.4 72.2 32 5.2 41.3
22:10 1018 30.06 847 25.01 22.1 71.7 34 5.9 42.6
22:15 1018 30.06 847 25.01 21.7 71.1 38 7.1 44.8
22:20 1018 30.06 847 25.01 21.5 70.7 37 6.2 43.1
22:25 1019 30.09 848 25.04 21.2 70.2 38 6.4 43.5
22:30 1019 30.09 848 25.04 21.2 70.1 39 6.8 44.2
22:35 1018 30.06 848 25.04 21.1 69.9 39 6.8 44.3
22:40 1018 30.06 848 25.04 21 69.8 39 6.6 44
22:45 1018 30.06 847 25.01 20.9 69.6 37 5.9 42.5
22:50 1018 30.06 847 25.01 20.9 69.6 39 6.5 43.7
22:55 1018 30.06 847 25.01 20.8 69.5 37 5.8 42.4
23:00 1018 30.06 847 25.01 20.9 69.7 37 5.8 42.4
23:05 1018 30.06 847 25.01 20.9 69.6 37 5.9 42.7
23:10 1018 30.06 847 25.01 20.6 69.2 38 5.9 42.6
23:15 1018 30.06 847 25.01 20.7 69.3 37 5.8 42.4
23:20 1018 30.06 847 25.01 20.9 69.6 36 5.4 41.7
23:25 1018 30.06 847 25.01 21 69.8 37 6.1 42.9
23:30 1018 30.06 848 25.04 20.8 69.4 36 5.5 41.9
23:35 1019 30.09 848 25.04 20.8 69.5 39 6.5 43.6
23:40 1019 30.09 848 25.04 20.5 69 38 5.8 42.4
23:45 1019 30.09 848 25.04 20.6 69.1 36 5.3 41.6
23:50 1019 30.09 848 25.04 20.7 69.2 35 4.8 40.6
23:55 1019 30.09 848 25.04 20.7 69.2 38 6 42.7
24:00 1019 30.09 848 25.04 20.4 68.8 38 5.6 42.2